RJTU(METAR)
12/11 17:00
METAR RJTU 110800Z VRB01KT 9999 FEW040 BKN050 07/M05 Q1028 RMK
1SC040 7SC050 A3036=
戻る
トップページへ戻る
IMOC Co,.Ltd.